Terminal Aerodrome Forecast
Issued by NWS

Home | Current Version | Previous Version | Graphics & Text | Print | Product List | Glossary On
Versions: 1 2 3 4 5 6 7 8 9 10 11 12 13 14 15 16 17 18 19 20 21 22 23
000
FTUS43 KMPX 290500
TAFRNH
TAF
KRNH 290530Z 2906/3006 34006KT P6SM BKN070 BKN250
     FM290800 36006KT 6SM BR BKN012 OVC050
     FM291100 03008KT 4SM -RA BR BKN007 OVC012
     FM291700 04009KT P6SM SCT008 OVC018
     FM292100 04008KT P6SM BKN035
     FM300000 06007KT P6SM SCT040=

USA.gov is the U.S. government's official web portal to all federal, state and local government web resources and services.